sensor_id;sensor_type;location;lat;lon;timestamp;temperature;humidity
17452;DHT22;8843;48.838;9.324;2022-12-08T00:01:30;6.80;85.40
17452;DHT22;8843;48.838;9.324;2022-12-08T00:03:58;6.90;85.40
17452;DHT22;8843;48.838;9.324;2022-12-08T00:06:26;6.90;85.50
17452;DHT22;8843;48.838;9.324;2022-12-08T00:09:18;6.90;85.40
17452;DHT22;8843;48.838;9.324;2022-12-08T00:11:55;6.90;85.50
17452;DHT22;8843;48.838;9.324;2022-12-08T00:14:24;6.90;85.50
17452;DHT22;8843;48.838;9.324;2022-12-08T00:16:51;6.90;85.50
17452;DHT22;8843;48.838;9.324;2022-12-08T00:19:18;6.90;85.40
17452;DHT22;8843;48.838;9.324;2022-12-08T00:21:45;6.80;85.40
17452;DHT22;8843;48.838;9.324;2022-12-08T00:24:12;6.80;85.40
17452;DHT22;8843;48.838;9.324;2022-12-08T00:26:39;6.80;85.40
17452;DHT22;8843;48.838;9.324;2022-12-08T00:29:08;6.80;85.40
17452;DHT22;8843;48.838;9.324;2022-12-08T00:31:35;6.80;85.40
17452;DHT22;8843;48.838;9.324;2022-12-08T00:34:02;6.80;85.30
17452;DHT22;8843;48.838;9.324;2022-12-08T00:36:29;6.80;86.00
17452;DHT22;8843;48.838;9.324;2022-12-08T00:38:56;6.80;85.40
17452;DHT22;8843;48.838;9.324;2022-12-08T00:41:25;6.80;85.40
17452;DHT22;8843;48.838;9.324;2022-12-08T00:44:07;6.80;85.40
17452;DHT22;8843;48.838;9.324;2022-12-08T00:46:34;6.80;85.40
17452;DHT22;8843;48.838;9.324;2022-12-08T00:49:02;6.80;85.40
17452;DHT22;8843;48.838;9.324;2022-12-08T00:51:29;6.80;86.10
17452;DHT22;8843;48.838;9.324;2022-12-08T00:53:56;6.80;85.30
17452;DHT22;8843;48.838;9.324;2022-12-08T00:56:22;6.80;85.40
17452;DHT22;8843;48.838;9.324;2022-12-08T00:58:50;6.80;85.30
17452;DHT22;8843;48.838;9.324;2022-12-08T01:01:18;6.80;85.40
17452;DHT22;8843;48.838;9.324;2022-12-08T01:03:45;6.80;85.40
17452;DHT22;8843;48.838;9.324;2022-12-08T01:06:12;6.80;85.40
17452;DHT22;8843;48.838;9.324;2022-12-08T01:08:39;6.80;85.30
17452;DHT22;8843;48.838;9.324;2022-12-08T01:11:08;6.80;85.20
17452;DHT22;8843;48.838;9.324;2022-12-08T01:13:35;6.80;85.20
17452;DHT22;8843;48.838;9.324;2022-12-08T01:16:03;6.80;85.20
17452;DHT22;8843;48.838;9.324;2022-12-08T01:18:32;6.80;85.20
17452;DHT22;8843;48.838;9.324;2022-12-08T01:21:02;6.80;85.20
17452;DHT22;8843;48.838;9.324;2022-12-08T01:23:29;6.80;85.10
17452;DHT22;8843;48.838;9.324;2022-12-08T01:26:01;6.80;85.20
17452;DHT22;8843;48.838;9.324;2022-12-08T01:28:29;6.80;85.10
17452;DHT22;8843;48.838;9.324;2022-12-08T01:30:56;6.80;85.10
17452;DHT22;8843;48.838;9.324;2022-12-08T01:33:23;6.80;85.10
17452;DHT22;8843;48.838;9.324;2022-12-08T01:35:52;6.80;85.10
17452;DHT22;8843;48.838;9.324;2022-12-08T01:38:20;6.80;85.10
17452;DHT22;8843;48.838;9.324;2022-12-08T01:40:47;6.80;85.00
17452;DHT22;8843;48.838;9.324;2022-12-08T01:43:15;6.80;85.00
17452;DHT22;8843;48.838;9.324;2022-12-08T01:45:43;6.80;85.00
17452;DHT22;8843;48.838;9.324;2022-12-08T01:48:13;6.80;85.60
17452;DHT22;8843;48.838;9.324;2022-12-08T01:50:42;6.80;85.00
17452;DHT22;8843;48.838;9.324;2022-12-08T01:53:14;6.70;84.80
17452;DHT22;8843;48.838;9.324;2022-12-08T01:55:45;6.80;84.80
17452;DHT22;8843;48.838;9.324;2022-12-08T01:58:16;6.80;84.80
17452;DHT22;8843;48.838;9.324;2022-12-08T02:00:44;6.80;84.70
17452;DHT22;8843;48.838;9.324;2022-12-08T02:03:14;6.80;84.70
17452;DHT22;8843;48.838;9.324;2022-12-08T02:05:43;6.80;84.70
17452;DHT22;8843;48.838;9.324;2022-12-08T02:08:12;6.80;84.60
17452;DHT22;8843;48.838;9.324;2022-12-08T02:10:41;6.70;85.30
17452;DHT22;8843;48.838;9.324;2022-12-08T02:13:10;6.70;84.50
17452;DHT22;8843;48.838;9.324;2022-12-08T02:15:46;6.70;84.50
17452;DHT22;8843;48.838;9.324;2022-12-08T02:18:32;6.70;84.50
17452;DHT22;8843;48.838;9.324;2022-12-08T02:21:04;6.70;84.50
17452;DHT22;8843;48.838;9.324;2022-12-08T02:23:43;6.70;84.40
17452;DHT22;8843;48.838;9.324;2022-12-08T02:35:28;6.70;84.40
17452;DHT22;8843;48.838;9.324;2022-12-08T02:38:05;6.70;84.40
17452;DHT22;8843;48.838;9.324;2022-12-08T02:40:36;6.70;84.40
17452;DHT22;8843;48.838;9.324;2022-12-08T02:43:08;6.70;84.30
17452;DHT22;8843;48.838;9.324;2022-12-08T02:45:42;6.70;85.00
17452;DHT22;8843;48.838;9.324;2022-12-08T02:48:11;6.70;84.20
17452;DHT22;8843;48.838;9.324;2022-12-08T02:50:39;6.70;84.20
17452;DHT22;8843;48.838;9.324;2022-12-08T02:53:06;6.70;84.20
17452;DHT22;8843;48.838;9.324;2022-12-08T02:55:42;6.70;84.20
17452;DHT22;8843;48.838;9.324;2022-12-08T02:58:25;6.70;84.10
17452;DHT22;8843;48.838;9.324;2022-12-08T03:01:10;6.70;84.20
17452;DHT22;8843;48.838;9.324;2022-12-08T03:03:44;6.70;84.20
17452;DHT22;8843;48.838;9.324;2022-12-08T03:06:20;6.70;84.10
17452;DHT22;8843;48.838;9.324;2022-12-08T03:08:54;6.70;84.10
17452;DHT22;8843;48.838;9.324;2022-12-08T03:11:26;6.70;84.00
17452;DHT22;8843;48.838;9.324;2022-12-08T03:13:59;6.70;84.00
17452;DHT22;8843;48.838;9.324;2022-12-08T03:16:29;6.70;84.00
17452;DHT22;8843;48.838;9.324;2022-12-08T03:18:58;6.70;84.00
17452;DHT22;8843;48.838;9.324;2022-12-08T03:21:28;6.70;84.00
17452;DHT22;8843;48.838;9.324;2022-12-08T03:23:56;6.70;84.00
17452;DHT22;8843;48.838;9.324;2022-12-08T03:26:29;6.60;83.80
17452;DHT22;8843;48.838;9.324;2022-12-08T03:28:56;6.60;83.80
17452;DHT22;8843;48.838;9.324;2022-12-08T03:31:25;6.60;83.80
17452;DHT22;8843;48.838;9.324;2022-12-08T03:33:55;6.60;83.80
17452;DHT22;8843;48.838;9.324;2022-12-08T03:36:24;6.60;83.80
17452;DHT22;8843;48.838;9.324;2022-12-08T03:38:53;6.60;83.70
17452;DHT22;8843;48.838;9.324;2022-12-08T03:41:21;6.60;83.80
17452;DHT22;8843;48.838;9.324;2022-12-08T03:43:50;6.60;83.70
17452;DHT22;8843;48.838;9.324;2022-12-08T03:46:18;6.60;83.70
17452;DHT22;8843;48.838;9.324;2022-12-08T03:48:45;6.60;84.30
17452;DHT22;8843;48.838;9.324;2022-12-08T03:51:12;6.60;83.60
17452;DHT22;8843;48.838;9.324;2022-12-08T03:53:40;6.60;83.70
17452;DHT22;8843;48.838;9.324;2022-12-08T03:56:15;6.60;83.60
17452;DHT22;8843;48.838;9.324;2022-12-08T03:58:45;6.60;83.60
17452;DHT22;8843;48.838;9.324;2022-12-08T04:01:12;6.60;83.50
17452;DHT22;8843;48.838;9.324;2022-12-08T04:03:39;6.60;83.50
17452;DHT22;8843;48.838;9.324;2022-12-08T04:06:06;6.60;83.50
17452;DHT22;8843;48.838;9.324;2022-12-08T04:08:33;6.60;83.50
17452;DHT22;8843;48.838;9.324;2022-12-08T04:11:00;6.60;83.40
17452;DHT22;8843;48.838;9.324;2022-12-08T04:13:28;6.60;83.40
17452;DHT22;8843;48.838;9.324;2022-12-08T04:15:55;6.60;83.40
17452;DHT22;8843;48.838;9.324;2022-12-08T04:18:22;6.60;83.40
17452;DHT22;8843;48.838;9.324;2022-12-08T04:20:48;6.60;83.30
17452;DHT22;8843;48.838;9.324;2022-12-08T04:23:15;6.60;83.30
17452;DHT22;8843;48.838;9.324;2022-12-08T04:25:42;6.60;83.40
17452;DHT22;8843;48.838;9.324;2022-12-08T04:28:09;6.60;83.40
17452;DHT22;8843;48.838;9.324;2022-12-08T04:30:37;6.60;83.30
17452;DHT22;8843;48.838;9.324;2022-12-08T04:33:04;6.60;83.30
17452;DHT22;8843;48.838;9.324;2022-12-08T04:35:31;6.60;84.20
17452;DHT22;8843;48.838;9.324;2022-12-08T04:37:58;6.50;83.30
17452;DHT22;8843;48.838;9.324;2022-12-08T04:40:25;6.50;83.30
17452;DHT22;8843;48.838;9.324;2022-12-08T04:42:52;6.60;83.30
17452;DHT22;8843;48.838;9.324;2022-12-08T04:45:19;6.50;83.30
17452;DHT22;8843;48.838;9.324;2022-12-08T04:47:48;6.50;83.20
17452;DHT22;8843;48.838;9.324;2022-12-08T04:50:14;6.60;83.30
17452;DHT22;8843;48.838;9.324;2022-12-08T04:52:41;6.50;83.10
17452;DHT22;8843;48.838;9.324;2022-12-08T04:55:08;6.50;83.10
17452;DHT22;8843;48.838;9.324;2022-12-08T04:57:35;6.50;83.20
17452;DHT22;8843;48.838;9.324;2022-12-08T05:00:04;6.50;83.10
17452;DHT22;8843;48.838;9.324;2022-12-08T05:02:31;6.50;83.10
17452;DHT22;8843;48.838;9.324;2022-12-08T05:04:59;6.50;83.00
17452;DHT22;8843;48.838;9.324;2022-12-08T05:07:26;6.50;83.00
17452;DHT22;8843;48.838;9.324;2022-12-08T05:09:53;6.50;83.00
17452;DHT22;8843;48.838;9.324;2022-12-08T05:12:20;6.50;83.00
17452;DHT22;8843;48.838;9.324;2022-12-08T05:14:47;6.50;83.00
17452;DHT22;8843;48.838;9.324;2022-12-08T05:17:14;6.50;82.90
17452;DHT22;8843;48.838;9.324;2022-12-08T05:19:41;6.50;83.60
17452;DHT22;8843;48.838;9.324;2022-12-08T05:22:10;6.50;83.00
17452;DHT22;8843;48.838;9.324;2022-12-08T05:24:36;6.50;82.90
17452;DHT22;8843;48.838;9.324;2022-12-08T05:27:04;6.50;83.00
17452;DHT22;8843;48.838;9.324;2022-12-08T05:29:30;6.50;82.90
17452;DHT22;8843;48.838;9.324;2022-12-08T05:31:57;6.50;82.90
17452;DHT22;8843;48.838;9.324;2022-12-08T05:34:24;6.50;82.90
17452;DHT22;8843;48.838;9.324;2022-12-08T05:36:51;6.50;82.90
17452;DHT22;8843;48.838;9.324;2022-12-08T05:39:19;6.50;82.80
17452;DHT22;8843;48.838;9.324;2022-12-08T05:41:46;6.50;82.80
17452;DHT22;8843;48.838;9.324;2022-12-08T05:44:13;6.50;82.80
17452;DHT22;8843;48.838;9.324;2022-12-08T05:46:40;6.50;82.90
17452;DHT22;8843;48.838;9.324;2022-12-08T05:49:07;6.50;82.80
17452;DHT22;8843;48.838;9.324;2022-12-08T05:51:34;6.50;82.80
17452;DHT22;8843;48.838;9.324;2022-12-08T05:54:01;6.50;82.70
17452;DHT22;8843;48.838;9.324;2022-12-08T05:56:29;6.40;82.60
17452;DHT22;8843;48.838;9.324;2022-12-08T05:58:56;6.40;82.60
17452;DHT22;8843;48.838;9.324;2022-12-08T06:01:24;6.50;82.60
17452;DHT22;8843;48.838;9.324;2022-12-08T06:03:52;6.50;82.60
17452;DHT22;8843;48.838;9.324;2022-12-08T06:06:19;6.40;82.50
17452;DHT22;8843;48.838;9.324;2022-12-08T06:08:46;6.50;82.50
17452;DHT22;8843;48.838;9.324;2022-12-08T06:11:17;6.40;82.40
17452;DHT22;8843;48.838;9.324;2022-12-08T06:13:46;6.40;82.40
17452;DHT22;8843;48.838;9.324;2022-12-08T06:16:12;6.40;82.40
17452;DHT22;8843;48.838;9.324;2022-12-08T06:18:39;6.40;82.40
17452;DHT22;8843;48.838;9.324;2022-12-08T06:21:08;6.40;82.40
17452;DHT22;8843;48.838;9.324;2022-12-08T06:23:35;6.40;82.30
17452;DHT22;8843;48.838;9.324;2022-12-08T06:26:02;6.40;82.40
17452;DHT22;8843;48.838;9.324;2022-12-08T06:28:30;6.40;82.30
17452;DHT22;8843;48.838;9.324;2022-12-08T06:30:59;6.40;82.30
17452;DHT22;8843;48.838;9.324;2022-12-08T06:33:26;6.40;82.40
17452;DHT22;8843;48.838;9.324;2022-12-08T06:35:52;6.40;82.30
17452;DHT22;8843;48.838;9.324;2022-12-08T06:38:19;6.40;82.30
17452;DHT22;8843;48.838;9.324;2022-12-08T06:40:52;6.40;82.30
17452;DHT22;8843;48.838;9.324;2022-12-08T06:43:20;6.40;82.30
17452;DHT22;8843;48.838;9.324;2022-12-08T06:45:47;6.40;82.30
17452;DHT22;8843;48.838;9.324;2022-12-08T06:48:15;6.40;82.10
17452;DHT22;8843;48.838;9.324;2022-12-08T06:50:42;6.40;82.10
17452;DHT22;8843;48.838;9.324;2022-12-08T06:53:10;6.40;82.10
17452;DHT22;8843;48.838;9.324;2022-12-08T06:55:42;6.40;82.20
17452;DHT22;8843;48.838;9.324;2022-12-08T06:58:10;6.30;82.10
17452;DHT22;8843;48.838;9.324;2022-12-08T07:00:37;8.00;84.60
17452;DHT22;8843;48.838;9.324;2022-12-08T07:03:08;8.90;77.20
17452;DHT22;8843;48.838;9.324;2022-12-08T07:05:43;7.80;73.00
17452;DHT22;8843;48.838;9.324;2022-12-08T07:08:15;7.10;74.70
17452;DHT22;8843;48.838;9.324;2022-12-08T07:10:41;6.70;74.90
17452;DHT22;8843;48.838;9.324;2022-12-08T07:13:08;6.40;76.00
17452;DHT22;8843;48.838;9.324;2022-12-08T07:15:35;6.20;76.90
17452;DHT22;8843;48.838;9.324;2022-12-08T07:18:02;6.20;79.60
17452;DHT22;8843;48.838;9.324;2022-12-08T07:20:29;6.10;77.20
17452;DHT22;8843;48.838;9.324;2022-12-08T07:22:58;6.10;78.00
17452;DHT22;8843;48.838;9.324;2022-12-08T07:25:24;5.40;71.70
17452;DHT22;8843;48.838;9.324;2022-12-08T07:27:52;4.90;71.60
17452;DHT22;8843;48.838;9.324;2022-12-08T07:30:19;4.70;72.00
17452;DHT22;8843;48.838;9.324;2022-12-08T07:32:46;4.50;72.30
17452;DHT22;8843;48.838;9.324;2022-12-08T07:35:12;4.00;72.50
17452;DHT22;8843;48.838;9.324;2022-12-08T07:37:39;4.30;74.70
17452;DHT22;8843;48.838;9.324;2022-12-08T07:40:09;4.20;72.70
17452;DHT22;8843;48.838;9.324;2022-12-08T07:42:36;4.20;72.60
17452;DHT22;8843;48.838;9.324;2022-12-08T07:45:03;4.30;71.50
17452;DHT22;8843;48.838;9.324;2022-12-08T07:47:30;4.20;71.80
17452;DHT22;8843;48.838;9.324;2022-12-08T07:49:57;4.20;71.90
17452;DHT22;8843;48.838;9.324;2022-12-08T07:52:24;4.40;72.80
17452;DHT22;8843;48.838;9.324;2022-12-08T07:54:51;4.40;72.10
17452;DHT22;8843;48.838;9.324;2022-12-08T07:57:19;4.30;71.60
17452;DHT22;8843;48.838;9.324;2022-12-08T07:59:46;4.40;72.00
17452;DHT22;8843;48.838;9.324;2022-12-08T08:02:16;4.40;72.10
17452;DHT22;8843;48.838;9.324;2022-12-08T08:04:43;4.40;72.20
17452;DHT22;8843;48.838;9.324;2022-12-08T08:07:10;4.30;72.20
17452;DHT22;8843;48.838;9.324;2022-12-08T08:09:37;4.50;72.00
17452;DHT22;8843;48.838;9.324;2022-12-08T08:12:04;4.40;72.00
17452;DHT22;8843;48.838;9.324;2022-12-08T08:14:33;4.40;72.10
17452;DHT22;8843;48.838;9.324;2022-12-08T08:17:00;4.30;72.30
17452;DHT22;8843;48.838;9.324;2022-12-08T08:19:27;4.30;72.70
17452;DHT22;8843;48.838;9.324;2022-12-08T08:21:54;4.30;73.30
17452;DHT22;8843;48.838;9.324;2022-12-08T08:24:21;4.40;73.30
17452;DHT22;8843;48.838;9.324;2022-12-08T08:26:49;4.40;72.90
17452;DHT22;8843;48.838;9.324;2022-12-08T08:29:18;4.50;73.20
17452;DHT22;8843;48.838;9.324;2022-12-08T08:31:46;4.40;73.60
17452;DHT22;8843;48.838;9.324;2022-12-08T08:34:13;5.80;86.40
17452;DHT22;8843;48.838;9.324;2022-12-08T08:36:39;7.00;78.50
17452;DHT22;8843;48.838;9.324;2022-12-08T08:39:06;6.70;79.50
17452;DHT22;8843;48.838;9.324;2022-12-08T08:41:33;6.50;78.10
17452;DHT22;8843;48.838;9.324;2022-12-08T08:44:01;6.20;77.70
17452;DHT22;8843;48.838;9.324;2022-12-08T08:46:27;6.10;78.10
17452;DHT22;8843;48.838;9.324;2022-12-08T08:48:56;6.10;78.70
17452;DHT22;8843;48.838;9.324;2022-12-08T08:51:23;6.00;79.20
17452;DHT22;8843;48.838;9.324;2022-12-08T08:53:50;6.00;80.10
17452;DHT22;8843;48.838;9.324;2022-12-08T08:56:18;6.00;79.60
17452;DHT22;8843;48.838;9.324;2022-12-08T08:58:46;6.00;79.80
17452;DHT22;8843;48.838;9.324;2022-12-08T09:01:15;6.00;80.00
17452;DHT22;8843;48.838;9.324;2022-12-08T09:03:42;6.00;80.10
17452;DHT22;8843;48.838;9.324;2022-12-08T09:06:11;6.00;80.20
17452;DHT22;8843;48.838;9.324;2022-12-08T09:08:37;6.00;80.40
17452;DHT22;8843;48.838;9.324;2022-12-08T09:11:05;6.00;80.40
17452;DHT22;8843;48.838;9.324;2022-12-08T09:13:32;6.00;80.50
17452;DHT22;8843;48.838;9.324;2022-12-08T09:15:59;6.00;80.60
17452;DHT22;8843;48.838;9.324;2022-12-08T09:18:27;6.00;80.70
17452;DHT22;8843;48.838;9.324;2022-12-08T09:20:54;6.00;80.70
17452;DHT22;8843;48.838;9.324;2022-12-08T09:23:22;6.00;80.80
17452;DHT22;8843;48.838;9.324;2022-12-08T09:25:49;6.00;81.50
17452;DHT22;8843;48.838;9.324;2022-12-08T09:28:16;6.00;81.00
17452;DHT22;8843;48.838;9.324;2022-12-08T09:30:43;6.00;80.90
17452;DHT22;8843;48.838;9.324;2022-12-08T09:33:10;6.00;81.90
17452;DHT22;8843;48.838;9.324;2022-12-08T09:35:36;6.00;81.10
17452;DHT22;8843;48.838;9.324;2022-12-08T09:38:04;6.00;81.10
17452;DHT22;8843;48.838;9.324;2022-12-08T09:40:38;6.00;81.10
17452;DHT22;8843;48.838;9.324;2022-12-08T09:43:13;6.10;81.30
17452;DHT22;8843;48.838;9.324;2022-12-08T09:45:46;6.10;81.30
17452;DHT22;8843;48.838;9.324;2022-12-08T09:48:16;6.10;81.40
17452;DHT22;8843;48.838;9.324;2022-12-08T09:50:48;6.10;81.40
17452;DHT22;8843;48.838;9.324;2022-12-08T09:53:21;6.10;81.40
17452;DHT22;8843;48.838;9.324;2022-12-08T09:55:54;6.10;81.50
17452;DHT22;8843;48.838;9.324;2022-12-08T09:58:28;6.10;81.50
17452;DHT22;8843;48.838;9.324;2022-12-08T10:00:57;6.10;81.50
17452;DHT22;8843;48.838;9.324;2022-12-08T10:03:27;6.10;81.50
17452;DHT22;8843;48.838;9.324;2022-12-08T10:05:58;6.10;82.30
17452;DHT22;8843;48.838;9.324;2022-12-08T10:08:35;6.10;81.60
17452;DHT22;8843;48.838;9.324;2022-12-08T10:11:10;6.10;82.30
17452;DHT22;8843;48.838;9.324;2022-12-08T10:13:42;6.10;82.30
17452;DHT22;8843;48.838;9.324;2022-12-08T10:16:19;6.10;81.60
17452;DHT22;8843;48.838;9.324;2022-12-08T10:18:51;6.10;81.70
17452;DHT22;8843;48.838;9.324;2022-12-08T10:21:24;6.10;82.50
17452;DHT22;8843;48.838;9.324;2022-12-08T10:23:56;6.10;81.70
17452;DHT22;8843;48.838;9.324;2022-12-08T10:26:27;6.10;81.80
17452;DHT22;8843;48.838;9.324;2022-12-08T10:28:57;6.10;81.80
17452;DHT22;8843;48.838;9.324;2022-12-08T10:31:25;6.10;82.50
17452;DHT22;8843;48.838;9.324;2022-12-08T10:33:56;6.10;81.80
17452;DHT22;8843;48.838;9.324;2022-12-08T10:36:43;6.10;82.00
17452;DHT22;8843;48.838;9.324;2022-12-08T10:39:30;6.10;81.80
17452;DHT22;8843;48.838;9.324;2022-12-08T10:42:07;6.10;82.00
17452;DHT22;8843;48.838;9.324;2022-12-08T10:44:39;6.10;82.10
17452;DHT22;8843;48.838;9.324;2022-12-08T10:47:15;6.10;82.10
17452;DHT22;8843;48.838;9.324;2022-12-08T10:49:42;6.10;82.10
17452;DHT22;8843;48.838;9.324;2022-12-08T10:52:21;6.10;82.10
17452;DHT22;8843;48.838;9.324;2022-12-08T10:54:51;6.10;81.90
17452;DHT22;8843;48.838;9.324;2022-12-08T10:57:22;6.10;82.30
17452;DHT22;8843;48.838;9.324;2022-12-08T10:59:53;6.10;82.30
17452;DHT22;8843;48.838;9.324;2022-12-08T11:02:20;6.10;82.30
17452;DHT22;8843;48.838;9.324;2022-12-08T11:04:55;6.10;82.50
17452;DHT22;8843;48.838;9.324;2022-12-08T11:07:25;6.10;82.50
17452;DHT22;8843;48.838;9.324;2022-12-08T11:09:54;6.10;83.20
17452;DHT22;8843;48.838;9.324;2022-12-08T11:12:27;6.10;82.50
17452;DHT22;8843;48.838;9.324;2022-12-08T11:14:57;6.10;82.70
17452;DHT22;8843;48.838;9.324;2022-12-08T11:17:27;6.10;82.80
17452;DHT22;8843;48.838;9.324;2022-12-08T11:20:03;6.10;82.70
17452;DHT22;8843;48.838;9.324;2022-12-08T11:22:45;6.20;82.80
17452;DHT22;8843;48.838;9.324;2022-12-08T11:25:18;6.10;82.70
17452;DHT22;8843;48.838;9.324;2022-12-08T11:27:48;6.20;82.80
17452;DHT22;8843;48.838;9.324;2022-12-08T11:30:18;6.20;82.80
17452;DHT22;8843;48.838;9.324;2022-12-08T11:32:47;6.20;82.60
17452;DHT22;8843;48.838;9.324;2022-12-08T11:35:19;6.20;82.80
17452;DHT22;8843;48.838;9.324;2022-12-08T11:37:46;6.20;82.10
17452;DHT22;8843;48.838;9.324;2022-12-08T11:40:16;6.20;82.40
17452;DHT22;8843;48.838;9.324;2022-12-08T11:42:53;6.20;82.60
17452;DHT22;8843;48.838;9.324;2022-12-08T11:45:24;6.20;82.50
17452;DHT22;8843;48.838;9.324;2022-12-08T11:48:00;6.20;82.50
17452;DHT22;8843;48.838;9.324;2022-12-08T11:50:38;6.30;81.80
17452;DHT22;8843;48.838;9.324;2022-12-08T11:53:14;6.20;79.80
17452;DHT22;8843;48.838;9.324;2022-12-08T11:55:46;6.20;81.40
17452;DHT22;8843;48.838;9.324;2022-12-08T11:58:18;6.20;81.40
17452;DHT22;8843;48.838;9.324;2022-12-08T12:00:46;6.20;81.60
17452;DHT22;8843;48.838;9.324;2022-12-08T12:03:20;6.10;81.70
17452;DHT22;8843;48.838;9.324;2022-12-08T12:06:03;6.10;81.40
17452;DHT22;8843;48.838;9.324;2022-12-08T12:08:40;6.10;81.90
17452;DHT22;8843;48.838;9.324;2022-12-08T12:11:15;6.20;82.00
17452;DHT22;8843;48.838;9.324;2022-12-08T12:14:21;6.20;82.00
17452;DHT22;8843;48.838;9.324;2022-12-08T12:16:59;6.10;81.70
17452;DHT22;8843;48.838;9.324;2022-12-08T12:19:29;6.20;82.00
17452;DHT22;8843;48.838;9.324;2022-12-08T12:22:05;6.20;82.00
17452;DHT22;8843;48.838;9.324;2022-12-08T12:24:37;6.20;82.30
17452;DHT22;8843;48.838;9.324;2022-12-08T12:27:06;6.20;82.90
17452;DHT22;8843;48.838;9.324;2022-12-08T12:29:49;6.20;82.20
17452;DHT22;8843;48.838;9.324;2022-12-08T12:32:19;6.20;82.30
17452;DHT22;8843;48.838;9.324;2022-12-08T12:34:50;6.20;82.00
17452;DHT22;8843;48.838;9.324;2022-12-08T12:37:20;6.20;82.40
17452;DHT22;8843;48.838;9.324;2022-12-08T12:39:54;6.20;82.00
17452;DHT22;8843;48.838;9.324;2022-12-08T12:42:36;6.20;82.20
17452;DHT22;8843;48.838;9.324;2022-12-08T12:45:23;6.20;82.30
17452;DHT22;8843;48.838;9.324;2022-12-08T12:47:52;6.20;82.20
17452;DHT22;8843;48.838;9.324;2022-12-08T12:50:41;6.20;82.60
17452;DHT22;8843;48.838;9.324;2022-12-08T12:56:07;6.20;82.40
17452;DHT22;8843;48.838;9.324;2022-12-08T12:58:40;6.20;82.40
17452;DHT22;8843;48.838;9.324;2022-12-08T13:04:28;6.20;82.30
17452;DHT22;8843;48.838;9.324;2022-12-08T13:06:56;6.20;83.00
17452;DHT22;8843;48.838;9.324;2022-12-08T13:09:29;6.20;82.30
17452;DHT22;8843;48.838;9.324;2022-12-08T13:11:59;6.20;82.30
17452;DHT22;8843;48.838;9.324;2022-12-08T13:14:32;6.20;82.30
17452;DHT22;8843;48.838;9.324;2022-12-08T13:17:01;6.20;82.40
17452;DHT22;8843;48.838;9.324;2022-12-08T13:19:32;6.20;82.40
17452;DHT22;8843;48.838;9.324;2022-12-08T13:22:01;6.20;83.10
17452;DHT22;8843;48.838;9.324;2022-12-08T13:24:33;6.20;82.40
17452;DHT22;8843;48.838;9.324;2022-12-08T13:27:31;6.20;82.50
17452;DHT22;8843;48.838;9.324;2022-12-08T13:30:40;6.10;79.30
17452;DHT22;8843;48.838;9.324;2022-12-08T13:33:11;5.50;79.70
17452;DHT22;8843;48.838;9.324;2022-12-08T13:35:46;5.20;80.40
17452;DHT22;8843;48.838;9.324;2022-12-08T13:38:16;5.00;80.70
17452;DHT22;8843;48.838;9.324;2022-12-08T13:40:45;5.10;80.30
17452;DHT22;8843;48.838;9.324;2022-12-08T13:43:17;5.20;80.00
17452;DHT22;8843;48.838;9.324;2022-12-08T13:45:46;5.30;79.60
17452;DHT22;8843;48.838;9.324;2022-12-08T13:48:19;5.50;79.80
17452;DHT22;8843;48.838;9.324;2022-12-08T13:50:56;5.60;77.90
17452;DHT22;8843;48.838;9.324;2022-12-08T13:53:27;6.60;85.60
17452;DHT22;8843;48.838;9.324;2022-12-08T13:55:56;6.80;82.40
17452;DHT22;8843;48.838;9.324;2022-12-08T13:58:25;6.70;80.40
17452;DHT22;8843;48.838;9.324;2022-12-08T14:00:59;6.60;82.30
17452;DHT22;8843;48.838;9.324;2022-12-08T14:03:26;6.50;83.20
17452;DHT22;8843;48.838;9.324;2022-12-08T14:05:55;6.40;82.50
17452;DHT22;8843;48.838;9.324;2022-12-08T14:08:30;6.40;81.70
17452;DHT22;8843;48.838;9.324;2022-12-08T14:11:00;6.20;77.50
17452;DHT22;8843;48.838;9.324;2022-12-08T14:13:29;8.10;83.80
17452;DHT22;8843;48.838;9.324;2022-12-08T14:15:57;9.00;77.60
17452;DHT22;8843;48.838;9.324;2022-12-08T14:18:27;8.90;71.90
17452;DHT22;8843;48.838;9.324;2022-12-08T14:21:01;7.90;73.10
17452;DHT22;8843;48.838;9.324;2022-12-08T14:23:28;7.30;73.40
17452;DHT22;8843;48.838;9.324;2022-12-08T14:25:55;6.90;76.10
17452;DHT22;8843;48.838;9.324;2022-12-08T14:28:23;6.70;77.20
17452;DHT22;8843;48.838;9.324;2022-12-08T14:30:51;6.50;78.20
17452;DHT22;8843;48.838;9.324;2022-12-08T14:33:18;6.40;78.70
17452;DHT22;8843;48.838;9.324;2022-12-08T14:35:50;6.40;79.40
17452;DHT22;8843;48.838;9.324;2022-12-08T14:38:20;6.30;79.60
17452;DHT22;8843;48.838;9.324;2022-12-08T14:40:48;6.30;79.90
17452;DHT22;8843;48.838;9.324;2022-12-08T14:43:17;6.20;80.10
17452;DHT22;8843;48.838;9.324;2022-12-08T14:45:49;6.30;80.40
17452;DHT22;8843;48.838;9.324;2022-12-08T14:48:19;6.30;80.40
17452;DHT22;8843;48.838;9.324;2022-12-08T14:50:56;6.30;80.60
17452;DHT22;8843;48.838;9.324;2022-12-08T14:53:28;6.10;78.70
17452;DHT22;8843;48.838;9.324;2022-12-08T14:55:57;6.90;84.70
17452;DHT22;8843;48.838;9.324;2022-12-08T14:58:27;6.90;79.50
17452;DHT22;8843;48.838;9.324;2022-12-08T15:00:56;6.60;77.20
17452;DHT22;8843;48.838;9.324;2022-12-08T15:03:24;6.40;78.70
17452;DHT22;8843;48.838;9.324;2022-12-08T15:05:53;6.80;80.50
17452;DHT22;8843;48.838;9.324;2022-12-08T15:08:21;6.70;78.70
17452;DHT22;8843;48.838;9.324;2022-12-08T15:11:16;6.50;79.40
17452;DHT22;8843;48.838;9.324;2022-12-08T15:13:45;6.40;79.90
17452;DHT22;8843;48.838;9.324;2022-12-08T15:16:25;6.40;80.20
17452;DHT22;8843;48.838;9.324;2022-12-08T15:19:03;6.30;80.40
17452;DHT22;8843;48.838;9.324;2022-12-08T15:21:36;6.30;80.60
17452;DHT22;8843;48.838;9.324;2022-12-08T15:24:03;6.30;81.30
17452;DHT22;8843;48.838;9.324;2022-12-08T15:26:38;6.30;80.80
17452;DHT22;8843;48.838;9.324;2022-12-08T15:29:10;6.30;80.80
17452;DHT22;8843;48.838;9.324;2022-12-08T15:31:37;6.30;80.90
17452;DHT22;8843;48.838;9.324;2022-12-08T15:34:03;6.20;81.00
17452;DHT22;8843;48.838;9.324;2022-12-08T15:36:30;6.30;81.60
17452;DHT22;8843;48.838;9.324;2022-12-08T15:38:57;6.30;81.00
17452;DHT22;8843;48.838;9.324;2022-12-08T15:41:24;6.30;81.10
17452;DHT22;8843;48.838;9.324;2022-12-08T15:43:52;6.30;81.00
17452;DHT22;8843;48.838;9.324;2022-12-08T15:46:19;6.30;81.00
17452;DHT22;8843;48.838;9.324;2022-12-08T15:48:46;6.20;76.40
17452;DHT22;8843;48.838;9.324;2022-12-08T15:51:13;6.20;81.20
17452;DHT22;8843;48.838;9.324;2022-12-08T15:53:40;6.20;80.00
17452;DHT22;8843;48.838;9.324;2022-12-08T15:56:07;6.20;80.80
17452;DHT22;8843;48.838;9.324;2022-12-08T15:58:36;6.20;82.50
17452;DHT22;8843;48.838;9.324;2022-12-08T16:01:04;6.50;80.50
17452;DHT22;8843;48.838;9.324;2022-12-08T16:03:31;7.00;80.40
17452;DHT22;8843;48.838;9.324;2022-12-08T16:05:59;6.80;79.60
17452;DHT22;8843;48.838;9.324;2022-12-08T16:08:26;6.60;80.50
17452;DHT22;8843;48.838;9.324;2022-12-08T16:10:54;6.90;83.40
17452;DHT22;8843;48.838;9.324;2022-12-08T16:13:41;6.80;79.20
17452;DHT22;8843;48.838;9.324;2022-12-08T16:16:19;6.60;78.20
17452;DHT22;8843;48.838;9.324;2022-12-08T16:18:49;6.40;79.60
17452;DHT22;8843;48.838;9.324;2022-12-08T16:21:16;6.30;79.70
17452;DHT22;8843;48.838;9.324;2022-12-08T16:23:43;6.30;80.10
17452;DHT22;8843;48.838;9.324;2022-12-08T16:26:11;6.30;80.20
17452;DHT22;8843;48.838;9.324;2022-12-08T16:28:38;6.30;80.40
17452;DHT22;8843;48.838;9.324;2022-12-08T16:31:06;6.30;80.40
17452;DHT22;8843;48.838;9.324;2022-12-08T16:33:36;6.30;80.50
17452;DHT22;8843;48.838;9.324;2022-12-08T16:36:03;6.30;80.60